EST,Max TemperatureF,Mean TemperatureF,Min TemperatureF,Max Dew PointF,MeanDew PointF,Min DewpointF,Max Humidity, Mean Humidity, Min Humidity, Max Sea Level PressureIn, Mean Sea Level PressureIn, Min Sea Level PressureIn, Max VisibilityMiles, Mean VisibilityMiles, Min VisibilityMiles, Max Wind SpeedMPH, Mean Wind SpeedMPH, Max Gust SpeedMPH,PrecipitationIn, CloudCover, Events, WindDirDegrees
2012-11-1,,,,,,,,,,,,,,,,,,,,,,
2012-11-2,,,,,,,,,,,,,,,,,,,,,,
2012-11-3,,,,,,,,,,,,,,,,,,,,,,
2012-11-4,,,,,,,,,,,,,,,,,,,,,,
2012-11-5,45,42,37,25,22,20,51,47,42,30.16,30.09,30.01,,,,14,10,21,0.00,,,342
2012-11-6,43,40,36,30,21,17,62,49,41,30.25,30.18,30.10,,,,13,7,22,0.00,,,21
2012-11-7,46,42,37,39,35,32,89,79,66,30.06,29.80,29.61,,,,26,18,47,0.34,,,22
2012-11-8,43,40,37,36,34,32,83,76,68,29.80,29.66,29.58,,,,24,20,41,0.55,,,336
2012-11-9,53,47,41,36,28,24,70,50,35,30.17,29.99,29.80,,,,21,15,31,0.00,,,315
2012-11-10,53,47,41,44,37,34,90,65,52,30.46,30.31,30.17,,,,12,7,18,0.00,,,282
2012-11-11,60,54,48,53,48,41,93,78,62,30.53,30.50,30.47,,,,9,3,17,0.00,,,196
2012-11-12,63,54,46,58,54,44,100,90,78,30.51,30.42,30.25,,,,8,3,,0.00,,,168
2012-11-13,61,53,44,59,46,31,96,80,58,30.42,30.29,30.18,,,,18,10,25,0.02,,,322
2012-11-14,48,45,42,34,29,23,68,56,36,30.50,30.46,30.42,,,,14,11,24,0.00,,,22
2012-11-15,44,41,39,34,32,30,73,68,60,30.43,30.37,30.29,,,,13,10,20,0.00,,,18
2012-11-16,46,44,42,35,31,26,68,59,44,30.43,30.32,30.28,,,,12,7,17,0.00,,,10
2012-11-17,51,44,37,37,33,27,76,63,52,30.65,30.56,30.43,,,,13,8,21,0.00,,,33
2012-11-18,50,47,44,38,35,32,76,64,54,30.68,30.64,30.59,,,,10,7,20,0.00,,,50
2012-11-19,50,47,44,41,39,37,80,74,68,30.56,30.41,30.26,,,,12,9,20,0.00,,,33
2012-11-20,48,46,43,39,38,37,82,73,64,30.21,30.16,30.13,,,,10,8,17,0.00,,,33
2012-11-21,46,46,46,39,38,38,76,74,73,30.19,30.17,30.15,,,,10,7,,0.00,,,22
2012-11-22,,,,,,,,,,,,,,,,,,,,,,
2012-11-23,53,50,46,49,46,42,86,81,74,30.00,29.80,29.69,,,,7,5,,0.00,,,206
2012-11-24,51,44,37,44,26,19,77,48,34,29.76,29.66,29.62,,,,17,11,31,0.00,,,289
2012-11-25,41,39,37,27,23,21,60,52,47,29.93,29.85,29.78,,,,18,14,26,0.00,,,267
2012-11-26,46,40,32,30,25,22,66,52,39,30.26,30.09,29.95,,,,15,9,22,0.00,,,274
2012-11-27,44,38,32,38,34,27,93,82,60,30.33,30.24,30.17,,,,13,4,21,0.20,,,41
2012-11-28,41,39,37,33,28,22,86,65,50,30.22,30.18,30.14,,,,13,10,20,0.00,,,326
2012-11-29,43,40,37,29,26,22,65,56,45,30.34,30.28,30.23,,,,14,10,26,0.00,,,266
2012-11-30,43,41,37,32,30,28,73,67,62,30.49,30.43,30.31,,,,10,9,18,0.00,,,53